createdAt,value
2017-07-07T00:00:08.159Z,19.65
2017-07-07T00:01:09.597Z,19.75
2017-07-07T00:02:11.015Z,19.87
2017-07-07T00:03:12.526Z,19.95
2017-07-07T00:04:13.966Z,19.93
2017-07-07T00:05:15.397Z,19.86
2017-07-07T00:06:16.823Z,19.61
2017-07-07T00:07:18.260Z,19.47
2017-07-07T00:08:19.677Z,19.50
2017-07-07T00:09:21.111Z,19.61
2017-07-07T00:10:22.529Z,19.68
2017-07-07T00:11:23.950Z,19.88
2017-07-07T00:12:25.380Z,20.00
2017-07-07T00:13:26.803Z,19.94
2017-07-07T00:14:28.230Z,19.70
2017-07-07T00:15:29.656Z,19.73
2017-07-07T00:16:31.085Z,19.57
2017-07-07T00:17:32.507Z,19.54
2017-07-07T00:18:33.930Z,19.65
2017-07-07T00:19:35.356Z,19.69
2017-07-07T00:20:36.778Z,19.79
2017-07-07T00:21:38.203Z,19.66
2017-07-07T00:22:39.625Z,19.65
2017-07-07T00:23:41.063Z,19.53
2017-07-07T00:24:42.495Z,19.72
2017-07-07T00:25:43.921Z,19.58
2017-07-07T00:26:45.350Z,19.42
2017-07-07T00:27:46.780Z,19.57
2017-07-07T00:28:48.199Z,19.43
2017-07-07T00:29:49.626Z,19.57
2017-07-07T00:30:51.056Z,19.58
2017-07-07T00:31:52.591Z,19.54
2017-07-07T00:32:54.010Z,19.42
2017-07-07T00:33:55.436Z,19.43
2017-07-07T00:34:56.870Z,19.50
2017-07-07T00:35:58.304Z,19.50
2017-07-07T00:36:59.730Z,19.47
2017-07-07T00:38:01.157Z,19.55
2017-07-07T00:39:02.594Z,19.51
2017-07-07T00:40:04.013Z,19.65
2017-07-07T00:41:05.436Z,19.72
2017-07-07T00:42:06.861Z,19.55
2017-07-07T00:43:08.290Z,19.58
2017-07-07T00:44:09.709Z,19.66
2017-07-07T00:45:11.133Z,19.69
2017-07-07T00:46:12.558Z,19.63
2017-07-07T00:47:13.984Z,19.60
2017-07-07T00:48:15.416Z,19.53
2017-07-07T00:49:16.845Z,19.39
2017-07-07T00:50:18.275Z,19.57
2017-07-07T00:51:19.757Z,19.69
2017-07-07T00:52:21.120Z,19.66
2017-07-07T00:53:22.548Z,19.51
2017-07-07T00:54:23.976Z,19.58
2017-07-07T00:55:25.391Z,19.60
2017-07-07T00:56:26.818Z,19.33
2017-07-07T00:57:28.245Z,19.08
2017-07-07T00:58:29.670Z,19.20
2017-07-07T00:59:31.091Z,19.29
2017-07-07T01:00:32.513Z,19.43
2017-07-07T01:01:33.941Z,19.40
2017-07-07T01:02:35.368Z,19.43
2017-07-07T01:03:36.802Z,19.43
2017-07-07T01:04:38.226Z,19.42
2017-07-07T01:05:39.657Z,19.47
2017-07-07T01:06:41.080Z,19.39
2017-07-07T01:07:42.645Z,19.50
2017-07-07T01:08:44.070Z,19.46
2017-07-07T01:09:45.502Z,19.35
2017-07-07T01:10:46.931Z,19.35
2017-07-07T01:11:48.351Z,19.43
2017-07-07T01:12:49.771Z,19.50
2017-07-07T01:13:51.191Z,19.57
2017-07-07T01:14:52.616Z,19.54
2017-07-07T01:15:54.139Z,19.55
2017-07-07T01:16:55.563Z,19.63
2017-07-07T01:17:56.982Z,19.55
2017-07-07T01:18:58.410Z,19.53
2017-07-07T01:19:59.914Z,19.43
2017-07-07T01:21:01.336Z,19.42
2017-07-07T01:22:02.763Z,19.18
2017-07-07T01:23:04.195Z,19.10
2017-07-07T01:24:05.627Z,18.98
2017-07-07T01:25:07.056Z,19.10
2017-07-07T01:26:08.483Z,19.14
2017-07-07T01:27:09.992Z,19.20
2017-07-07T01:28:11.420Z,19.21
2017-07-07T01:29:12.841Z,19.17
2017-07-07T01:30:14.262Z,19.23
2017-07-07T01:31:15.701Z,19.40
2017-07-07T01:32:17.135Z,19.47
2017-07-07T01:33:18.569Z,19.43
2017-07-07T01:34:20.014Z,19.40
2017-07-07T01:35:21.436Z,19.33
2017-07-07T01:36:22.860Z,19.31
2017-07-07T01:37:24.291Z,19.17
2017-07-07T01:38:25.709Z,19.13
2017-07-07T01:39:27.137Z,19.17
2017-07-07T01:40:28.571Z,19.18
2017-07-07T01:41:29.990Z,19.20
2017-07-07T01:42:31.412Z,19.31
2017-07-07T01:43:32.832Z,19.33
2017-07-07T01:44:34.255Z,19.35
2017-07-07T01:45:35.679Z,19.21
2017-07-07T01:46:37.102Z,19.23
2017-07-07T01:47:38.525Z,19.33
2017-07-07T01:48:39.957Z,19.28
2017-07-07T01:49:41.377Z,19.18
2017-07-07T01:50:42.807Z,18.91
2017-07-07T01:51:44.228Z,18.97
2017-07-07T01:52:45.646Z,19.08
2017-07-07T01:53:47.064Z,19.14
2017-07-07T01:54:48.493Z,19.05
2017-07-07T01:55:49.913Z,19.28
2017-07-07T01:56:51.342Z,19.10
2017-07-07T01:57:52.780Z,19.23
2017-07-07T01:58:54.185Z,19.20
2017-07-07T01:59:55.618Z,19.17
2017-07-07T02:00:57.048Z,18.97
2017-07-07T02:01:58.487Z,18.72
2017-07-07T02:02:59.908Z,18.61
2017-07-07T02:04:01.332Z,18.55
2017-07-07T02:05:02.767Z,18.65
2017-07-07T02:06:04.202Z,18.64
2017-07-07T02:07:05.627Z,18.82
2017-07-07T02:08:07.058Z,18.73
2017-07-07T02:09:08.481Z,18.87
2017-07-07T02:10:09.916Z,18.67
2017-07-07T02:11:11.321Z,18.65
2017-07-07T02:12:12.747Z,18.79
2017-07-07T02:13:14.168Z,18.73
2017-07-07T02:14:15.589Z,18.58
2017-07-07T02:15:17.010Z,18.46
2017-07-07T02:16:18.432Z,18.54
2017-07-07T02:17:19.874Z,18.47
2017-07-07T02:18:21.303Z,18.65
2017-07-07T02:19:22.727Z,18.42
2017-07-07T02:20:24.156Z,18.44
2017-07-07T02:21:25.584Z,18.54
2017-07-07T02:22:27.006Z,18.64
2017-07-07T02:23:28.431Z,18.54
2017-07-07T02:24:29.936Z,18.36
2017-07-07T02:25:31.359Z,18.17
2017-07-07T02:26:32.788Z,18.06
2017-07-07T02:27:34.898Z,18.02
2017-07-07T02:28:36.326Z,18.02
2017-07-07T02:29:37.749Z,18.21
2017-07-07T02:30:39.190Z,18.24
2017-07-07T02:31:40.696Z,18.13
2017-07-07T02:32:42.123Z,18.04
2017-07-07T02:33:43.546Z,18.17
2017-07-07T02:34:45.000Z,18.42
2017-07-07T02:35:46.424Z,18.47
2017-07-07T02:36:47.849Z,18.50
2017-07-07T02:37:49.265Z,18.52
2017-07-07T02:38:50.698Z,18.47
2017-07-07T02:39:52.133Z,18.64
2017-07-07T02:40:53.562Z,18.40
2017-07-07T02:41:54.986Z,18.67
2017-07-07T02:42:56.408Z,18.72
2017-07-07T02:43:57.831Z,18.87
2017-07-07T02:44:59.255Z,18.90
2017-07-07T02:46:00.694Z,18.91
2017-07-07T02:47:02.117Z,18.95
2017-07-07T02:48:03.538Z,18.95
2017-07-07T02:49:04.968Z,18.98
2017-07-07T02:50:06.390Z,18.87
2017-07-07T02:51:07.818Z,18.91
2017-07-07T02:52:09.235Z,18.92
2017-07-07T02:53:10.656Z,18.97
2017-07-07T02:54:12.081Z,18.82
2017-07-07T02:55:13.507Z,18.87
2017-07-07T02:56:14.941Z,18.94
2017-07-07T02:57:16.366Z,18.86
2017-07-07T02:58:17.802Z,18.79
2017-07-07T02:59:19.230Z,18.90
2017-07-07T03:00:20.655Z,18.90
2017-07-07T03:01:22.083Z,18.92
2017-07-07T03:02:23.502Z,18.84
2017-07-07T03:03:24.932Z,18.68
2017-07-07T03:04:26.357Z,18.58
2017-07-07T03:05:27.790Z,18.49
2017-07-07T03:06:29.222Z,18.39
2017-07-07T03:07:30.646Z,18.42
2017-07-07T03:08:32.083Z,18.37
2017-07-07T03:09:33.509Z,18.43
2017-07-07T03:10:34.928Z,18.39
2017-07-07T03:11:36.357Z,18.47
2017-07-07T03:12:37.814Z,18.47
2017-07-07T03:13:39.237Z,18.44
2017-07-07T03:14:40.655Z,18.55
2017-07-07T03:15:42.082Z,18.47
2017-07-07T03:16:43.502Z,18.40
2017-07-07T03:17:44.926Z,18.52
2017-07-07T03:18:46.366Z,18.42
2017-07-07T03:19:47.789Z,18.50
2017-07-07T03:20:49.214Z,18.58
2017-07-07T03:21:50.635Z,18.59
2017-07-07T03:22:52.051Z,18.62
2017-07-07T03:23:53.477Z,18.65
2017-07-07T03:24:54.903Z,18.55
2017-07-07T03:25:56.332Z,18.62
2017-07-07T03:26:57.750Z,18.46
2017-07-07T03:27:59.180Z,18.52
2017-07-07T03:29:00.726Z,18.55
2017-07-07T03:30:02.095Z,18.67
2017-07-07T03:31:03.521Z,18.58
2017-07-07T03:32:04.948Z,18.65
2017-07-07T03:33:06.371Z,18.77
2017-07-07T03:34:07.797Z,18.74
2017-07-07T03:35:09.211Z,18.94
2017-07-07T03:36:10.640Z,18.67
2017-07-07T03:37:12.059Z,18.79
2017-07-07T03:38:13.478Z,18.64
2017-07-07T03:39:14.908Z,18.68
2017-07-07T03:40:16.329Z,18.77
2017-07-07T03:41:17.755Z,18.65
2017-07-07T03:42:19.179Z,18.64
2017-07-07T03:43:20.598Z,18.80
2017-07-07T03:44:22.024Z,18.83
2017-07-07T03:45:23.460Z,18.80
2017-07-07T03:46:24.886Z,18.68
2017-07-07T03:47:26.311Z,18.54
2017-07-07T03:48:27.731Z,18.49
2017-07-07T03:49:29.157Z,18.57
2017-07-07T03:50:30.580Z,18.50
2017-07-07T03:51:32.011Z,18.59
2017-07-07T03:52:33.441Z,18.61
2017-07-07T03:53:34.874Z,18.61
2017-07-07T03:54:36.305Z,18.65
2017-07-07T03:55:37.735Z,18.82
2017-07-07T03:56:39.160Z,18.94
2017-07-07T03:57:40.585Z,18.98
2017-07-07T03:58:42.006Z,18.99
2017-07-07T03:59:43.430Z,18.94
2017-07-07T04:00:44.901Z,18.95
2017-07-07T04:01:46.291Z,18.94
2017-07-07T04:02:47.716Z,18.84
2017-07-07T04:03:49.148Z,18.92
2017-07-07T04:04:50.581Z,19.06
2017-07-07T04:05:52.015Z,18.95
2017-07-07T04:06:53.443Z,18.80
2017-07-07T04:07:54.862Z,18.74
2017-07-07T04:08:56.291Z,18.67
2017-07-07T04:09:57.720Z,18.55
2017-07-07T04:10:59.142Z,18.59
2017-07-07T04:12:00.572Z,18.65
2017-07-07T04:13:02.011Z,18.54
2017-07-07T04:14:03.438Z,18.49
2017-07-07T04:15:04.864Z,18.59
2017-07-07T04:16:06.319Z,18.50
2017-07-07T04:17:07.743Z,18.39
2017-07-07T04:18:09.172Z,18.39
2017-07-07T04:19:10.612Z,18.50
2017-07-07T04:20:12.098Z,18.39
2017-07-07T04:21:13.522Z,18.29
2017-07-07T04:22:14.946Z,18.17
2017-07-07T04:23:16.376Z,18.21
2017-07-07T04:24:17.899Z,18.24
2017-07-07T04:25:19.330Z,18.36
2017-07-07T04:26:20.759Z,18.37
2017-07-07T04:27:22.188Z,18.40
2017-07-07T04:28:23.621Z,18.54
2017-07-07T04:29:25.047Z,18.73
2017-07-07T04:30:26.478Z,18.62
2017-07-07T04:31:27.917Z,18.46
2017-07-07T04:32:29.349Z,18.54
2017-07-07T04:33:30.787Z,18.67
2017-07-07T04:34:32.219Z,18.67
2017-07-07T04:35:33.646Z,18.65
2017-07-07T04:36:35.072Z,18.90
2017-07-07T04:37:36.490Z,18.92
2017-07-07T04:38:37.926Z,18.99
2017-07-07T04:39:39.358Z,19.11
2017-07-07T04:40:40.777Z,19.21
2017-07-07T04:41:42.210Z,19.31
2017-07-07T04:42:43.641Z,19.11
2017-07-07T04:43:45.060Z,19.14
2017-07-07T04:44:46.485Z,19.11
2017-07-07T04:45:47.903Z,19.05
2017-07-07T04:46:49.339Z,19.11
2017-07-07T04:47:50.769Z,19.20
2017-07-07T04:48:52.195Z,19.21
2017-07-07T04:49:53.622Z,19.18
2017-07-07T04:50:55.056Z,18.97
2017-07-07T04:51:56.472Z,18.74
2017-07-07T04:52:57.901Z,18.73
2017-07-07T04:53:59.331Z,18.64
2017-07-07T04:55:00.761Z,18.74
2017-07-07T04:56:02.187Z,18.83
2017-07-07T04:57:03.619Z,18.73
2017-07-07T04:58:05.051Z,18.84
2017-07-07T04:59:06.473Z,18.74
2017-07-07T05:00:07.901Z,18.91
2017-07-07T05:01:09.335Z,18.83
2017-07-07T05:02:10.763Z,18.77
2017-07-07T05:03:12.185Z,18.87
2017-07-07T05:04:13.625Z,18.91
2017-07-07T05:05:15.056Z,18.99
2017-07-07T05:06:16.487Z,18.98
2017-07-07T05:07:17.914Z,18.95
2017-07-07T05:08:19.885Z,18.99
2017-07-07T05:09:21.313Z,18.95
2017-07-07T05:10:22.737Z,19.06
2017-07-07T05:11:24.159Z,19.02
2017-07-07T05:12:25.593Z,19.01
2017-07-07T05:13:27.014Z,18.98
2017-07-07T05:14:28.442Z,18.90
2017-07-07T05:15:29.872Z,18.94
2017-07-07T05:16:31.300Z,18.99
2017-07-07T05:17:32.739Z,19.01
2017-07-07T05:18:34.160Z,19.10
2017-07-07T05:19:35.584Z,19.18
2017-07-07T05:20:37.008Z,19.06
2017-07-07T05:21:38.444Z,18.87
2017-07-07T05:22:39.872Z,19.02
2017-07-07T05:23:41.313Z,19.10
2017-07-07T05:24:42.746Z,19.11
2017-07-07T05:25:44.177Z,19.18
2017-07-07T05:26:45.593Z,19.25
2017-07-07T05:27:47.032Z,19.33
2017-07-07T05:28:48.459Z,19.17
2017-07-07T05:29:49.890Z,19.28
2017-07-07T05:30:51.418Z,19.21
2017-07-07T05:31:52.846Z,19.17
2017-07-07T05:32:54.272Z,19.35
2017-07-07T05:33:55.705Z,19.18
2017-07-07T05:34:57.141Z,19.23
2017-07-07T05:35:58.580Z,19.29
2017-07-07T05:37:00.010Z,19.25
2017-07-07T05:38:01.435Z,19.42
2017-07-07T05:39:02.866Z,19.48
2017-07-07T05:40:04.298Z,19.53
2017-07-07T05:41:05.733Z,19.65
2017-07-07T05:42:07.171Z,19.66
2017-07-07T05:43:08.601Z,19.63
2017-07-07T05:44:10.028Z,19.63
2017-07-07T05:45:11.458Z,19.58
2017-07-07T05:46:12.887Z,19.61
2017-07-07T05:47:14.326Z,19.83
2017-07-07T05:48:15.749Z,19.73
2017-07-07T05:49:17.178Z,19.76
2017-07-07T05:50:18.607Z,19.69
2017-07-07T05:51:20.030Z,19.68
2017-07-07T05:52:21.461Z,19.84
2017-07-07T05:53:22.895Z,19.83
2017-07-07T05:54:24.332Z,19.80
2017-07-07T05:55:25.760Z,19.72
2017-07-07T05:56:27.190Z,19.87
2017-07-07T05:57:28.620Z,19.66
2017-07-07T05:58:30.054Z,19.84
2017-07-07T05:59:31.482Z,19.97
2017-07-07T06:00:32.913Z,20.06
2017-07-07T06:01:34.352Z,20.03
2017-07-07T06:02:35.783Z,20.12
2017-07-07T06:03:37.213Z,20.18
2017-07-07T06:04:38.652Z,20.18
2017-07-07T06:05:40.090Z,20.24
2017-07-07T06:06:41.520Z,20.39
2017-07-07T06:07:42.959Z,20.35
2017-07-07T06:08:44.388Z,20.33
2017-07-07T06:09:45.824Z,20.50
2017-07-07T06:10:47.253Z,20.54
2017-07-07T06:11:48.679Z,20.53
2017-07-07T06:12:50.104Z,20.41
2017-07-07T06:13:51.531Z,20.54
2017-07-07T06:14:52.959Z,20.51
2017-07-07T06:15:54.391Z,20.38
2017-07-07T06:16:55.819Z,20.42
2017-07-07T06:17:57.245Z,20.49
2017-07-07T06:18:58.671Z,20.47
2017-07-07T06:20:00.152Z,20.43
2017-07-07T06:21:01.580Z,20.28
2017-07-07T06:22:03.007Z,20.38
2017-07-07T06:23:04.439Z,20.33
2017-07-07T06:24:05.873Z,20.33
2017-07-07T06:25:07.307Z,20.25
2017-07-07T06:26:08.741Z,20.35
2017-07-07T06:27:10.173Z,20.34
2017-07-07T06:28:11.602Z,20.31
2017-07-07T06:29:13.031Z,20.35
2017-07-07T06:30:14.467Z,20.49
2017-07-07T06:31:15.903Z,20.51
2017-07-07T06:32:17.367Z,20.51
2017-07-07T06:33:18.820Z,20.51
2017-07-07T06:34:20.366Z,20.47
2017-07-07T06:35:21.795Z,20.59
2017-07-07T06:36:23.222Z,20.64
2017-07-07T06:37:24.644Z,20.64
2017-07-07T06:38:26.070Z,20.66
2017-07-07T06:39:27.501Z,20.62
2017-07-07T06:40:28.928Z,20.77
2017-07-07T06:41:30.425Z,20.71
2017-07-07T06:42:31.874Z,20.68
2017-07-07T06:43:33.302Z,20.62
2017-07-07T06:44:34.736Z,20.72
2017-07-07T06:45:36.172Z,20.76
2017-07-07T06:46:37.593Z,20.81
2017-07-07T06:47:39.018Z,20.83
2017-07-07T06:48:40.522Z,20.90
2017-07-07T06:49:41.957Z,21.01
2017-07-07T06:50:43.394Z,20.98
2017-07-07T06:51:44.822Z,20.91
2017-07-07T06:52:46.289Z,20.83
2017-07-07T06:53:47.716Z,20.83
2017-07-07T06:54:49.157Z,20.96
2017-07-07T06:55:50.591Z,20.87
2017-07-07T06:56:52.133Z,20.96
2017-07-07T06:57:53.568Z,21.08
2017-07-07T06:58:55.003Z,21.14
2017-07-07T06:59:56.424Z,21.13
2017-07-07T07:00:57.857Z,21.13
2017-07-07T07:01:59.288Z,21.17
2017-07-07T07:03:00.722Z,21.24
2017-07-07T07:04:02.164Z,21.17
2017-07-07T07:05:03.602Z,21.27
2017-07-07T07:06:05.038Z,21.09
2017-07-07T07:07:06.470Z,21.16
2017-07-07T07:08:07.905Z,21.42
2017-07-07T07:09:09.337Z,21.45
2017-07-07T07:10:10.833Z,21.46
2017-07-07T07:11:12.201Z,21.32
2017-07-07T07:12:13.638Z,21.29
2017-07-07T07:13:15.065Z,21.53
2017-07-07T07:14:16.496Z,21.53
2017-07-07T07:15:17.927Z,21.46
2017-07-07T07:16:19.355Z,21.45
2017-07-07T07:17:20.783Z,21.46
2017-07-07T07:18:22.211Z,21.63
2017-07-07T07:19:23.645Z,21.53
2017-07-07T07:20:25.078Z,21.59
2017-07-07T07:21:26.496Z,21.69
2017-07-07T07:22:27.931Z,21.59
2017-07-07T07:23:29.358Z,21.67
2017-07-07T07:24:30.789Z,21.83
2017-07-07T07:25:32.216Z,21.83
2017-07-07T07:26:33.641Z,21.90
2017-07-07T07:27:35.068Z,21.85
2017-07-07T07:28:36.500Z,21.83
2017-07-07T07:29:37.926Z,21.85
2017-07-07T07:30:39.349Z,21.94
2017-07-07T07:31:41.081Z,21.95
2017-07-07T07:32:42.508Z,21.99
2017-07-07T07:33:43.940Z,21.87
2017-07-07T07:34:45.374Z,21.97
2017-07-07T07:35:46.816Z,21.92
2017-07-07T07:36:48.244Z,21.81
2017-07-07T07:37:49.673Z,21.94
2017-07-07T07:38:51.099Z,22.02
2017-07-07T07:39:52.536Z,22.12
2017-07-07T07:40:53.964Z,22.16
2017-07-07T07:41:55.389Z,22.13
2017-07-07T07:42:56.814Z,22.07
2017-07-07T07:43:58.238Z,21.92
2017-07-07T07:44:59.664Z,22.06
2017-07-07T07:46:01.088Z,22.10
2017-07-07T07:47:02.519Z,21.97
2017-07-07T07:48:03.949Z,21.94
2017-07-07T07:49:05.377Z,22.10
2017-07-07T07:50:06.815Z,22.20
2017-07-07T07:51:08.241Z,22.12
2017-07-07T07:52:09.732Z,22.23
2017-07-07T07:53:11.100Z,22.23
2017-07-07T07:54:12.538Z,22.41
2017-07-07T07:55:13.966Z,22.47
2017-07-07T07:56:15.395Z,22.53
2017-07-07T07:57:16.831Z,22.52
2017-07-07T07:58:18.256Z,22.67
2017-07-07T07:59:19.693Z,22.47
2017-07-07T08:00:21.124Z,22.50
2017-07-07T08:01:22.551Z,22.62
2017-07-07T08:02:23.982Z,22.60
2017-07-07T08:03:25.408Z,22.52
2017-07-07T08:04:26.840Z,22.50
2017-07-07T08:05:28.277Z,22.59
2017-07-07T08:06:29.712Z,22.54
2017-07-07T08:07:31.141Z,22.57
2017-07-07T08:08:32.565Z,22.67
2017-07-07T08:09:34.005Z,22.82
2017-07-07T08:10:35.427Z,22.86
2017-07-07T08:11:36.850Z,22.90
2017-07-07T08:12:38.277Z,22.92
2017-07-07T08:13:39.713Z,23.08
2017-07-07T08:14:41.170Z,22.94
2017-07-07T08:15:42.579Z,23.04
2017-07-07T08:16:44.010Z,23.11
2017-07-07T08:17:45.442Z,23.01
2017-07-07T08:18:46.875Z,22.94
2017-07-07T08:19:48.304Z,23.24
2017-07-07T08:20:49.732Z,23.19
2017-07-07T08:21:51.169Z,23.02
2017-07-07T08:22:52.599Z,23.14
2017-07-07T08:23:54.028Z,23.20
2017-07-07T08:24:55.461Z,23.09
2017-07-07T08:25:56.886Z,23.26
2017-07-07T08:26:58.936Z,23.35
2017-07-07T08:28:00.369Z,23.45
2017-07-07T08:29:01.795Z,23.60
2017-07-07T08:30:03.223Z,23.55
2017-07-07T08:31:04.753Z,23.47
2017-07-07T08:32:06.300Z,23.62
2017-07-07T08:33:07.738Z,23.40
2017-07-07T08:34:09.193Z,23.53
2017-07-07T08:35:10.629Z,23.46
2017-07-07T08:36:12.069Z,23.50
2017-07-07T08:37:13.503Z,23.58
2017-07-07T08:38:14.956Z,23.71
2017-07-07T08:39:16.384Z,23.72
2017-07-07T08:40:17.819Z,23.67
2017-07-07T08:41:19.254Z,23.80
2017-07-07T08:42:20.678Z,23.70
2017-07-07T08:43:22.106Z,23.58
2017-07-07T08:44:23.542Z,23.75
2017-07-07T08:45:24.976Z,23.90
2017-07-07T08:46:26.404Z,23.71
2017-07-07T08:47:27.828Z,23.76
2017-07-07T08:48:29.263Z,23.77
2017-07-07T08:49:30.696Z,23.76
2017-07-07T08:50:32.124Z,23.80
2017-07-07T08:51:33.554Z,23.94
2017-07-07T08:52:34.996Z,24.00
2017-07-07T08:53:36.430Z,24.10
2017-07-07T08:54:37.860Z,24.07
2017-07-07T08:55:39.295Z,24.16
2017-07-07T08:56:40.731Z,24.19
2017-07-07T08:57:42.163Z,24.24
2017-07-07T08:58:43.601Z,24.20
2017-07-07T08:59:45.047Z,24.29
2017-07-07T09:00:46.481Z,24.41
2017-07-07T09:01:47.913Z,24.42
2017-07-07T09:02:49.354Z,24.54
2017-07-07T09:03:50.783Z,24.68
2017-07-07T09:04:52.216Z,24.82
2017-07-07T09:05:53.657Z,24.92
2017-07-07T09:06:55.088Z,24.92
2017-07-07T09:07:56.532Z,24.83
2017-07-07T09:08:57.957Z,25.00
2017-07-07T09:09:59.403Z,24.79
2017-07-07T09:11:00.839Z,24.79
2017-07-07T09:12:02.267Z,24.83
2017-07-07T09:13:03.698Z,24.95
2017-07-07T09:14:05.133Z,24.87
2017-07-07T09:15:06.569Z,24.85
2017-07-07T09:16:08.007Z,24.87
2017-07-07T09:17:09.445Z,24.80
2017-07-07T09:18:10.881Z,25.00
2017-07-07T09:19:12.314Z,25.12
2017-07-07T09:20:13.753Z,25.13
2017-07-07T09:21:15.188Z,25.15
2017-07-07T09:22:16.630Z,25.16
2017-07-07T09:23:18.057Z,25.38
2017-07-07T09:24:19.496Z,25.56
2017-07-07T09:25:20.928Z,25.62
2017-07-07T09:26:22.363Z,25.59
2017-07-07T09:27:23.795Z,25.53
2017-07-07T09:28:25.229Z,25.65
2017-07-07T09:29:26.666Z,25.84
2017-07-07T09:30:28.128Z,25.59
2017-07-07T09:31:29.555Z,25.68
2017-07-07T09:32:31.058Z,25.77
2017-07-07T09:33:32.658Z,25.71
2017-07-07T09:34:34.833Z,25.72
2017-07-07T09:35:36.267Z,25.61
2017-07-07T09:36:37.705Z,25.64
2017-07-07T09:37:39.145Z,25.87
2017-07-07T09:38:40.581Z,25.79
2017-07-07T09:39:42.012Z,25.97
2017-07-07T09:40:43.442Z,26.01
2017-07-07T09:41:44.875Z,25.99
2017-07-07T09:42:46.308Z,25.99
2017-07-07T09:43:47.750Z,26.02
2017-07-07T09:44:49.184Z,26.01
2017-07-07T09:45:50.625Z,25.93
2017-07-07T09:46:52.061Z,25.89
2017-07-07T09:47:53.492Z,25.98
2017-07-07T09:48:54.921Z,26.01
2017-07-07T09:49:56.356Z,26.17
2017-07-07T09:50:57.788Z,26.09
2017-07-07T09:51:59.228Z,26.01
2017-07-07T09:53:00.667Z,26.17
2017-07-07T09:54:02.102Z,26.17
2017-07-07T09:55:03.544Z,26.09
2017-07-07T09:56:04.983Z,26.22
2017-07-07T09:57:06.415Z,26.44
2017-07-07T09:58:11.269Z,26.28
2017-07-07T09:59:12.724Z,26.27
2017-07-07T10:00:14.159Z,26.24
2017-07-07T10:01:15.602Z,26.11
2017-07-07T10:02:17.050Z,26.27
2017-07-07T10:03:18.489Z,26.35
2017-07-07T10:04:19.929Z,26.40
2017-07-07T10:05:21.361Z,26.46
2017-07-07T10:06:22.796Z,26.69
2017-07-07T10:07:24.242Z,26.84
2017-07-07T10:08:25.697Z,26.64
2017-07-07T10:09:27.146Z,26.64
2017-07-07T10:10:28.575Z,26.31
2017-07-07T10:11:30.009Z,26.31
2017-07-07T10:12:31.444Z,26.35
2017-07-07T10:13:32.880Z,26.54
2017-07-07T10:14:34.322Z,26.59
2017-07-07T10:15:35.772Z,26.64
2017-07-07T10:16:37.201Z,26.89
2017-07-07T10:17:38.632Z,26.98
2017-07-07T10:18:40.065Z,27.09
2017-07-07T10:19:41.489Z,27.11
2017-07-07T10:20:42.933Z,27.10
2017-07-07T10:21:44.372Z,27.17
2017-07-07T10:22:45.806Z,27.02
2017-07-07T10:23:47.234Z,27.04
2017-07-07T10:24:48.673Z,27.10
2017-07-07T10:25:50.115Z,27.10
2017-07-07T10:26:51.554Z,26.99
2017-07-07T10:27:52.992Z,27.11
2017-07-07T10:28:54.808Z,27.20
2017-07-07T10:29:56.268Z,27.32
2017-07-07T10:30:57.706Z,27.33
2017-07-07T10:31:59.140Z,27.58
2017-07-07T10:33:00.572Z,27.53
2017-07-07T10:34:02.010Z,27.73
2017-07-07T10:35:03.443Z,27.79
2017-07-07T10:36:04.877Z,27.62
2017-07-07T10:37:06.315Z,27.80
2017-07-07T10:38:07.756Z,28.25
2017-07-07T10:39:09.186Z,28.10
2017-07-07T10:40:10.622Z,28.35
2017-07-07T10:41:12.061Z,28.41
2017-07-07T10:42:13.492Z,28.43
2017-07-07T10:43:14.932Z,28.43
2017-07-07T10:44:16.365Z,28.16
2017-07-07T10:45:17.803Z,28.01
2017-07-07T10:46:19.234Z,27.98
2017-07-07T10:47:20.664Z,28.10
2017-07-07T10:48:22.094Z,27.89
2017-07-07T10:49:23.532Z,28.07
2017-07-07T10:50:24.965Z,28.47
2017-07-07T10:51:26.405Z,28.40
2017-07-07T10:52:27.841Z,28.09
2017-07-07T10:53:29.276Z,28.01
2017-07-07T10:54:30.710Z,27.86
2017-07-07T10:55:32.150Z,27.94
2017-07-07T10:56:33.583Z,28.04
2017-07-07T10:57:35.021Z,27.98
2017-07-07T10:58:36.453Z,28.10
2017-07-07T10:59:37.894Z,28.01
2017-07-07T11:00:39.340Z,28.11
2017-07-07T11:01:40.769Z,28.21
2017-07-07T11:02:42.198Z,27.88
2017-07-07T11:03:43.637Z,28.10
2017-07-07T11:04:45.077Z,28.11
2017-07-07T11:05:46.513Z,28.11
2017-07-07T11:06:47.952Z,28.03
2017-07-07T11:07:49.391Z,28.06
2017-07-07T11:08:50.834Z,27.69
2017-07-07T11:09:52.274Z,27.50
2017-07-07T11:10:53.705Z,27.64
2017-07-07T11:11:55.145Z,27.69
2017-07-07T11:12:56.583Z,28.03
2017-07-07T11:13:58.025Z,28.17
2017-07-07T11:14:59.463Z,28.25
2017-07-07T11:16:00.901Z,28.07
2017-07-07T11:17:02.336Z,27.88
2017-07-07T11:18:03.779Z,28.29
2017-07-07T11:19:05.206Z,28.40
2017-07-07T11:20:06.645Z,28.33
2017-07-07T11:21:08.079Z,28.31
2017-07-07T11:22:09.511Z,28.25
2017-07-07T11:23:10.942Z,28.35
2017-07-07T11:24:12.375Z,27.86
2017-07-07T11:25:13.811Z,27.86
2017-07-07T11:26:15.249Z,27.66
2017-07-07T11:27:16.681Z,27.41
2017-07-07T11:28:18.161Z,27.71
2017-07-07T11:29:19.626Z,27.70
2017-07-07T11:30:21.067Z,27.82
2017-07-07T11:31:22.507Z,27.69
2017-07-07T11:32:23.944Z,27.82
2017-07-07T11:33:25.381Z,27.61
2017-07-07T11:34:26.815Z,27.51
2017-07-07T11:35:28.250Z,27.50
2017-07-07T11:36:29.686Z,27.35
2017-07-07T11:37:31.120Z,27.21
2017-07-07T11:38:32.557Z,27.31
2017-07-07T11:39:33.991Z,27.31
2017-07-07T11:40:35.427Z,27.28
2017-07-07T11:41:36.882Z,27.39
2017-07-07T11:42:38.313Z,27.35
2017-07-07T11:43:39.762Z,27.36
2017-07-07T11:44:41.206Z,27.46
2017-07-07T11:45:42.657Z,27.58
2017-07-07T11:46:44.099Z,27.66
2017-07-07T11:47:45.531Z,27.73
2017-07-07T11:48:46.963Z,28.19
2017-07-07T11:49:48.403Z,28.56
2017-07-07T11:50:49.833Z,28.87
2017-07-07T11:51:51.267Z,28.62
2017-07-07T11:52:52.708Z,28.81
2017-07-07T11:53:54.141Z,28.85
2017-07-07T11:54:55.565Z,28.93
2017-07-07T11:55:56.999Z,28.96
2017-07-07T11:56:58.438Z,29.16
2017-07-07T11:57:59.877Z,28.73
2017-07-07T11:59:01.310Z,28.90
2017-07-07T12:00:02.746Z,28.88
2017-07-07T12:01:04.185Z,28.23
2017-07-07T12:02:05.628Z,28.16
2017-07-07T12:03:07.077Z,28.38
2017-07-07T12:04:08.520Z,28.75
2017-07-07T12:05:09.958Z,28.82
2017-07-07T12:06:11.396Z,28.77
2017-07-07T12:07:12.838Z,28.81
2017-07-07T12:08:14.273Z,29.23
2017-07-07T12:09:15.703Z,29.52
2017-07-07T12:10:17.163Z,29.50
2017-07-07T12:11:18.603Z,29.53
2017-07-07T12:12:20.041Z,29.60
2017-07-07T12:13:21.479Z,29.53
2017-07-07T12:14:22.924Z,29.74
2017-07-07T12:15:24.357Z,29.65
2017-07-07T12:16:25.793Z,29.66
2017-07-07T12:17:27.229Z,29.53
2017-07-07T12:18:28.665Z,29.18
2017-07-07T12:19:30.103Z,28.85
2017-07-07T12:20:31.548Z,28.87
2017-07-07T12:21:32.988Z,29.22
2017-07-07T12:22:34.427Z,29.47
2017-07-07T12:23:35.861Z,29.53
2017-07-07T12:24:37.308Z,29.23
2017-07-07T12:25:38.743Z,29.57
2017-07-07T12:26:40.176Z,29.52
2017-07-07T12:27:41.626Z,29.18
2017-07-07T12:28:43.058Z,28.78
2017-07-07T12:29:44.516Z,28.65
2017-07-07T12:30:47.241Z,28.53
2017-07-07T12:31:48.427Z,28.54
2017-07-07T12:32:49.862Z,29.11
2017-07-07T12:33:51.329Z,29.10
2017-07-07T12:34:52.768Z,28.93
2017-07-07T12:35:54.207Z,29.18
2017-07-07T12:36:55.647Z,29.10
2017-07-07T12:37:57.076Z,28.90
2017-07-07T12:38:58.514Z,28.90
2017-07-07T12:39:59.954Z,28.82
2017-07-07T12:41:01.393Z,28.75
2017-07-07T12:42:02.846Z,28.46
2017-07-07T12:43:04.285Z,28.16
2017-07-07T12:44:05.719Z,28.75
2017-07-07T12:45:07.174Z,29.15
2017-07-07T12:46:08.615Z,29.38
2017-07-07T12:47:10.062Z,29.70
2017-07-07T12:48:11.502Z,29.81
2017-07-07T12:49:12.934Z,29.89
2017-07-07T12:50:14.368Z,29.60
2017-07-07T12:51:15.823Z,29.44
2017-07-07T12:52:17.269Z,29.45
2017-07-07T12:53:18.702Z,29.52
2017-07-07T12:54:20.142Z,29.82
2017-07-07T12:55:21.586Z,30.00
2017-07-07T12:56:23.019Z,30.18
2017-07-07T12:57:24.465Z,29.94
2017-07-07T12:58:25.913Z,30.27
2017-07-07T12:59:27.349Z,30.49
2017-07-07T13:00:28.786Z,30.38
2017-07-07T13:01:30.236Z,30.27
2017-07-07T13:02:31.670Z,30.45
2017-07-07T13:03:33.114Z,30.71
2017-07-07T13:04:34.563Z,30.65
2017-07-07T13:05:36.964Z,30.74
2017-07-07T13:06:38.407Z,30.76
2017-07-07T13:07:39.837Z,30.29
2017-07-07T13:08:41.269Z,30.18
2017-07-07T13:09:42.723Z,30.23
2017-07-07T13:10:44.162Z,29.49